createdAt,value
2018-05-12T00:00:37.871Z,0
2018-05-12T00:01:39.244Z,0
2018-05-12T00:02:40.609Z,0
2018-05-12T00:03:41.983Z,0
2018-05-12T00:04:43.339Z,0
2018-05-12T00:05:44.729Z,0
2018-05-12T00:06:46.093Z,0
2018-05-12T00:07:47.456Z,0
2018-05-12T00:08:48.818Z,0
2018-05-12T00:09:50.234Z,0
2018-05-12T00:10:51.603Z,0
2018-05-12T00:11:52.973Z,0
2018-05-12T00:12:54.343Z,0
2018-05-12T00:13:55.731Z,0
2018-05-12T00:14:57.165Z,0
2018-05-12T00:15:58.462Z,0
2018-05-12T00:16:59.827Z,0
2018-05-12T00:18:01.196Z,0
2018-05-12T00:19:02.567Z,0
2018-05-12T00:20:03.939Z,0
2018-05-12T00:21:05.327Z,0
2018-05-12T00:22:06.705Z,0
2018-05-12T00:23:08.073Z,0
2018-05-12T00:24:09.437Z,0
2018-05-12T00:25:10.809Z,0
2018-05-12T00:26:12.402Z,0
2018-05-12T00:27:13.769Z,0
2018-05-12T00:28:15.145Z,0
2018-05-12T00:29:16.518Z,0
2018-05-12T00:30:17.883Z,0
2018-05-12T00:31:19.273Z,0
2018-05-12T00:32:20.632Z,0
2018-05-12T00:33:22.002Z,0
2018-05-12T00:34:23.375Z,0
2018-05-12T00:35:24.729Z,0
2018-05-12T00:36:26.100Z,0
2018-05-12T00:37:27.463Z,0
2018-05-12T00:38:28.828Z,0
2018-05-12T00:39:30.200Z,0
2018-05-12T00:40:31.559Z,0
2018-05-12T00:41:32.936Z,0
2018-05-12T00:42:34.290Z,0
2018-05-12T00:43:35.662Z,0
2018-05-12T00:44:37.035Z,0
2018-05-12T00:45:38.409Z,0
2018-05-12T00:46:39.781Z,0
2018-05-12T00:47:41.150Z,0
2018-05-12T00:48:42.527Z,0
2018-05-12T00:49:43.885Z,0
2018-05-12T00:50:45.253Z,0
2018-05-12T00:51:46.620Z,0
2018-05-12T00:52:47.988Z,0
2018-05-12T00:53:49.359Z,0
2018-05-12T00:54:50.731Z,0
2018-05-12T00:55:52.120Z,0
2018-05-12T00:56:53.485Z,0
2018-05-12T00:57:54.843Z,0
2018-05-12T00:58:56.220Z,0
2018-05-12T00:59:57.588Z,0
2018-05-12T01:00:58.955Z,0
2018-05-12T01:02:00.348Z,0
2018-05-12T01:03:01.725Z,0
2018-05-12T01:04:03.093Z,0
2018-05-12T01:05:04.458Z,0
2018-05-12T01:06:05.828Z,0
2018-05-12T01:07:07.198Z,0
2018-05-12T01:08:08.568Z,0
2018-05-12T01:09:09.931Z,0
2018-05-12T01:10:11.296Z,0
2018-05-12T01:11:12.674Z,0
2018-05-12T01:12:14.025Z,0
2018-05-12T01:13:15.397Z,0
2018-05-12T01:14:16.782Z,0
2018-05-12T01:15:18.156Z,0
2018-05-12T01:16:19.516Z,0
2018-05-12T01:17:20.882Z,0
2018-05-12T01:18:22.241Z,0
2018-05-12T01:19:23.610Z,0
2018-05-12T01:20:24.978Z,0
2018-05-12T01:21:26.386Z,0
2018-05-12T01:22:27.752Z,0
2018-05-12T01:23:29.132Z,0
2018-05-12T01:24:30.496Z,0
2018-05-12T01:25:31.863Z,0
2018-05-12T01:26:33.231Z,0
2018-05-12T01:27:34.597Z,0
2018-05-12T01:28:35.990Z,0
2018-05-12T01:29:37.360Z,0
2018-05-12T01:30:38.765Z,0
2018-05-12T01:31:40.138Z,0
2018-05-12T01:32:41.507Z,0
2018-05-12T01:33:42.873Z,0
2018-05-12T01:34:44.235Z,0
2018-05-12T01:35:45.603Z,0
2018-05-12T01:36:46.967Z,0
2018-05-12T01:37:48.333Z,0
2018-05-12T01:38:49.693Z,0
2018-05-12T01:39:51.060Z,0
2018-05-12T01:40:52.424Z,0
2018-05-12T01:41:53.786Z,0
2018-05-12T01:42:55.175Z,0
2018-05-12T01:43:56.546Z,0
2018-05-12T01:44:57.916Z,0
2018-05-12T01:45:59.282Z,0
2018-05-12T01:47:00.653Z,0
2018-05-12T01:48:02.020Z,0
2018-05-12T01:49:03.389Z,0
2018-05-12T01:50:04.757Z,0
2018-05-12T01:51:06.139Z,0
2018-05-12T01:52:07.504Z,0
2018-05-12T01:53:08.871Z,0
2018-05-12T01:54:10.234Z,0
2018-05-12T01:55:11.600Z,0
2018-05-12T01:56:12.967Z,0
2018-05-12T01:57:14.332Z,0
2018-05-12T01:58:15.704Z,0
2018-05-12T01:59:17.065Z,0
2018-05-12T02:00:18.436Z,0
2018-05-12T02:01:19.801Z,0
2018-05-12T02:02:21.176Z,0
2018-05-12T02:03:22.573Z,0
2018-05-12T02:04:23.943Z,0
2018-05-12T02:05:25.306Z,0
2018-05-12T02:06:26.667Z,0
2018-05-12T02:07:28.030Z,0
2018-05-12T02:08:29.393Z,0
2018-05-12T02:09:30.758Z,0
2018-05-12T02:10:32.125Z,0
2018-05-12T02:11:33.486Z,0
2018-05-12T02:12:34.845Z,0
2018-05-12T02:13:36.225Z,0
2018-05-12T02:14:37.594Z,0
2018-05-12T02:15:38.961Z,0
2018-05-12T02:16:40.385Z,0
2018-05-12T02:17:41.750Z,0
2018-05-12T02:18:43.113Z,0
2018-05-12T02:19:44.474Z,0
2018-05-12T02:20:45.836Z,0
2018-05-12T02:21:47.156Z,0
2018-05-12T02:22:48.515Z,0
2018-05-12T02:23:49.881Z,0
2018-05-12T02:24:51.240Z,0
2018-05-12T02:25:52.609Z,0
2018-05-12T02:26:53.976Z,0
2018-05-12T02:27:55.341Z,0
2018-05-12T02:28:56.759Z,0
2018-05-12T02:29:58.140Z,0
2018-05-12T02:30:59.512Z,0
2018-05-12T02:32:00.874Z,0
2018-05-12T02:33:02.243Z,0
2018-05-12T02:34:03.602Z,0
2018-05-12T02:35:04.967Z,0
2018-05-12T02:36:06.335Z,0
2018-05-12T02:37:07.707Z,0
2018-05-12T02:38:09.068Z,0
2018-05-12T02:39:10.443Z,0
2018-05-12T02:40:11.889Z,0
2018-05-12T02:41:13.254Z,0
2018-05-12T02:42:14.616Z,0
2018-05-12T02:43:15.986Z,0
2018-05-12T02:44:17.353Z,0
2018-05-12T02:45:18.714Z,0
2018-05-12T02:46:20.078Z,0
2018-05-12T02:47:21.441Z,0
2018-05-12T02:48:22.808Z,0
2018-05-12T02:49:24.176Z,0
2018-05-12T02:50:25.539Z,0
2018-05-12T02:51:26.977Z,0
2018-05-12T02:52:28.341Z,0
2018-05-12T02:53:29.711Z,0
2018-05-12T02:54:31.076Z,0
2018-05-12T02:55:32.458Z,0
2018-05-12T02:56:33.829Z,0
2018-05-12T02:57:35.198Z,0
2018-05-12T02:58:36.615Z,0
2018-05-12T02:59:37.981Z,0
2018-05-12T03:00:39.337Z,0
2018-05-12T03:01:40.703Z,0
2018-05-12T03:02:42.074Z,0
2018-05-12T03:03:43.442Z,0
2018-05-12T03:04:44.807Z,0
2018-05-12T03:05:46.181Z,0
2018-05-12T03:06:47.540Z,4
2018-05-12T03:07:48.905Z,4
2018-05-12T03:08:50.279Z,0
2018-05-12T03:09:51.636Z,4
2018-05-12T03:10:53.005Z,4
2018-05-12T03:11:54.376Z,8
2018-05-12T03:12:55.739Z,4
2018-05-12T03:13:57.111Z,4
2018-05-12T03:14:58.474Z,8
2018-05-12T03:15:59.847Z,8
2018-05-12T03:17:01.215Z,8
2018-05-12T03:18:02.585Z,12
2018-05-12T03:19:03.950Z,16
2018-05-12T03:20:05.320Z,16
2018-05-12T03:21:06.687Z,16
2018-05-12T03:22:08.045Z,20
2018-05-12T03:23:09.417Z,24
2018-05-12T03:24:10.784Z,32
2018-05-12T03:25:12.144Z,36
2018-05-12T03:26:13.512Z,40
2018-05-12T03:27:14.877Z,44
2018-05-12T03:28:16.235Z,56
2018-05-12T03:29:17.609Z,64
2018-05-12T03:30:18.969Z,72
2018-05-12T03:31:20.338Z,84
2018-05-12T03:32:21.701Z,96
2018-05-12T03:33:23.090Z,108
2018-05-12T03:34:24.464Z,124
2018-05-12T03:35:25.831Z,144
2018-05-12T03:36:27.197Z,160
2018-05-12T03:37:28.584Z,180
2018-05-12T03:38:29.943Z,200
2018-05-12T03:39:31.311Z,224
2018-05-12T03:40:32.670Z,252
2018-05-12T03:41:34.036Z,276
2018-05-12T03:42:35.408Z,304
2018-05-12T03:43:36.776Z,336
2018-05-12T03:44:38.137Z,372
2018-05-12T03:45:39.508Z,408
2018-05-12T03:46:40.871Z,448
2018-05-12T03:47:42.236Z,488
2018-05-12T03:48:43.600Z,532
2018-05-12T03:49:44.960Z,576
2018-05-12T03:50:46.333Z,628
2018-05-12T03:51:47.705Z,672
2018-05-12T03:52:49.071Z,724
2018-05-12T03:53:50.431Z,776
2018-05-12T03:54:51.813Z,832
2018-05-12T03:55:53.133Z,884
2018-05-12T03:56:54.512Z,940
2018-05-12T03:57:55.873Z,1000
2018-05-12T03:58:57.258Z,1064
2018-05-12T03:59:58.660Z,1124
2018-05-12T04:01:00.021Z,1188
2018-05-12T04:02:01.392Z,1252
2018-05-12T04:03:02.764Z,1324
2018-05-12T04:04:04.125Z,1392
2018-05-12T04:05:05.504Z,1464
2018-05-12T04:06:06.878Z,1540
2018-05-12T04:07:08.249Z,1620
2018-05-12T04:08:09.615Z,1704
2018-05-12T04:09:10.947Z,1780
2018-05-12T04:10:12.306Z,1872
2018-05-12T04:11:13.676Z,1956
2018-05-12T04:12:15.039Z,2040
2018-05-12T04:13:16.403Z,2124
2018-05-12T04:14:17.811Z,2212
2018-05-12T04:15:19.183Z,2304
2018-05-12T04:16:20.546Z,2392
2018-05-12T04:17:21.919Z,2488
2018-05-12T04:18:23.284Z,2576
2018-05-12T04:19:24.658Z,2672
2018-05-12T04:20:26.026Z,2768
2018-05-12T04:21:27.410Z,2864
2018-05-12T04:22:28.783Z,2968
2018-05-12T04:23:30.177Z,3072
2018-05-12T04:24:31.536Z,3172
2018-05-12T04:25:32.911Z,3276
2018-05-12T04:26:34.286Z,3392
2018-05-12T04:27:35.652Z,3504
2018-05-12T04:28:37.028Z,3620
2018-05-12T04:29:38.398Z,3732
2018-05-12T04:30:39.772Z,3852
2018-05-12T04:31:41.142Z,3980
2018-05-12T04:32:42.512Z,4116
2018-05-12T04:33:43.882Z,4248
2018-05-12T04:34:45.247Z,4384
2018-05-12T04:35:46.623Z,4524
2018-05-12T04:36:48.093Z,4668
2018-05-12T04:37:49.332Z,4812
2018-05-12T04:38:50.708Z,4936
2018-05-12T04:39:52.073Z,5052
2018-05-12T04:40:53.437Z,5168
2018-05-12T04:41:54.805Z,5272
2018-05-12T04:42:56.179Z,5376
2018-05-12T04:43:57.618Z,5488
2018-05-12T04:44:58.989Z,5588
2018-05-12T04:46:00.292Z,5688
2018-05-12T04:47:01.746Z,5796
2018-05-12T04:48:03.117Z,5904
2018-05-12T04:49:04.538Z,6012
2018-05-12T04:50:05.905Z,6128
2018-05-12T04:51:07.342Z,6252
2018-05-12T04:52:08.722Z,6376
2018-05-12T04:53:10.148Z,6500
2018-05-12T04:54:11.534Z,6608
2018-05-12T04:55:12.940Z,6712
2018-05-12T04:56:14.311Z,6812
2018-05-12T04:57:15.733Z,6908
2018-05-12T04:58:17.145Z,7012
2018-05-12T04:59:18.569Z,7124
2018-05-12T05:00:19.938Z,7248
2018-05-12T05:01:21.413Z,7360
2018-05-12T05:02:22.810Z,7452
2018-05-12T05:03:24.191Z,7544
2018-05-12T05:04:25.560Z,7644
2018-05-12T05:05:26.934Z,7748
2018-05-12T05:06:28.334Z,7852
2018-05-12T05:07:29.721Z,7956
2018-05-12T05:08:31.106Z,8068
2018-05-12T05:09:32.468Z,8208
2018-05-12T05:10:33.859Z,8324
2018-05-12T05:11:35.341Z,8420
2018-05-12T05:12:36.824Z,8508
2018-05-12T05:13:38.212Z,8592
2018-05-12T05:14:39.585Z,8704
2018-05-12T05:15:42.633Z,8840
2018-05-12T05:16:47.811Z,8980
2018-05-12T05:17:49.183Z,9136
2018-05-12T05:18:50.547Z,9304
2018-05-12T05:19:51.918Z,9476
2018-05-12T05:20:53.345Z,9668
2018-05-12T05:21:54.715Z,9864
2018-05-12T05:22:56.084Z,10044
2018-05-12T05:23:57.763Z,10200
2018-05-12T05:24:59.566Z,10336
2018-05-12T05:26:00.941Z,10480
2018-05-12T05:27:02.334Z,10604
2018-05-12T05:28:03.754Z,10716
2018-05-12T05:29:05.169Z,10836
2018-05-12T05:30:06.581Z,10944
2018-05-12T05:31:07.961Z,11076
2018-05-12T05:32:09.412Z,11212
2018-05-12T05:33:10.793Z,11336
2018-05-12T05:34:12.169Z,11484
2018-05-12T05:35:13.620Z,11688
2018-05-12T05:36:14.920Z,11804
2018-05-12T05:37:16.300Z,11948
2018-05-12T05:38:17.669Z,12040
2018-05-12T05:39:19.045Z,12136
2018-05-12T05:40:20.408Z,12248
2018-05-12T05:41:21.791Z,12268
2018-05-12T05:42:23.173Z,12292
2018-05-12T05:43:24.534Z,12248
2018-05-12T05:44:25.911Z,12236
2018-05-12T05:45:27.285Z,12212
2018-05-12T05:46:28.661Z,12424
2018-05-12T05:47:30.036Z,12672
2018-05-12T05:48:31.413Z,12980
2018-05-12T05:49:32.784Z,13708
2018-05-12T05:50:34.171Z,14572
2018-05-12T05:51:35.540Z,15092
2018-05-12T05:52:38.998Z,15352
2018-05-12T05:53:41.307Z,15524
2018-05-12T05:54:42.685Z,15692
2018-05-12T05:55:44.176Z,16288
2018-05-12T05:56:45.542Z,17060
2018-05-12T05:57:46.983Z,18180
2018-05-12T05:58:48.377Z,20128
2018-05-12T05:59:49.770Z,22560
2018-05-12T06:00:51.138Z,24608
2018-05-12T06:01:52.518Z,25824
2018-05-12T06:02:53.902Z,25952
2018-05-12T06:03:55.272Z,25568
2018-05-12T06:04:56.646Z,24800
2018-05-12T06:05:58.020Z,23776
2018-05-12T06:06:59.409Z,22400
2018-05-12T06:08:00.747Z,20192
2018-05-12T06:09:02.125Z,18400
2018-05-12T06:10:03.495Z,16408
2018-05-12T06:11:04.979Z,15852
2018-05-12T06:12:06.353Z,15712
2018-05-12T06:13:07.736Z,15776
2018-05-12T06:14:09.131Z,16004
2018-05-12T06:15:10.517Z,16264
2018-05-12T06:16:11.889Z,17008
2018-05-12T06:17:13.276Z,18784
2018-05-12T06:18:14.670Z,19648
2018-05-12T06:19:16.051Z,25024
2018-05-12T06:20:17.433Z,24416
2018-05-12T06:21:18.835Z,27488
2018-05-12T06:22:20.200Z,31968
2018-05-12T06:23:21.577Z,32928
2018-05-12T06:24:22.961Z,36032
2018-05-12T06:25:24.339Z,37792
2018-05-12T06:26:25.712Z,32000
2018-05-12T06:27:27.092Z,30176
2018-05-12T06:28:28.470Z,22688
2018-05-12T06:29:29.849Z,25664
2018-05-12T06:30:31.237Z,24032
2018-05-12T06:31:32.612Z,29056
2018-05-12T06:32:33.998Z,23616
2018-05-12T06:33:35.397Z,23904
2018-05-12T06:34:36.745Z,21472
2018-05-12T06:35:38.120Z,19936
2018-05-12T06:36:39.521Z,18912
2018-05-12T06:37:40.900Z,19808
2018-05-12T06:38:42.282Z,15324
2018-05-12T06:39:43.673Z,18432
2018-05-12T06:40:45.051Z,50304
2018-05-12T06:41:46.441Z,53152
2018-05-12T06:42:47.824Z,54496
2018-05-12T06:43:49.209Z,54080
2018-05-12T06:44:50.599Z,53504
2018-05-12T06:45:51.973Z,54944
2018-05-12T06:46:53.353Z,52576
2018-05-12T06:47:54.739Z,49344
2018-05-12T06:48:56.115Z,48928
2018-05-12T06:49:57.496Z,48736
2018-05-12T06:50:58.992Z,47488
2018-05-12T06:52:40.656Z,40768
2018-05-12T06:53:41.947Z,41984
2018-05-12T06:54:43.319Z,45088
2018-05-12T06:55:44.697Z,40896
2018-05-12T06:56:46.093Z,39424
2018-05-12T06:57:47.489Z,42784
2018-05-12T06:58:48.892Z,42624
2018-05-12T06:59:50.531Z,38848
2018-05-12T07:00:52.162Z,37088
2018-05-12T07:01:53.517Z,37888
2018-05-12T07:02:54.930Z,38496
2018-05-12T07:03:56.317Z,39072
2018-05-12T07:04:57.741Z,38880
2018-05-12T07:05:59.180Z,37792
2018-05-12T07:07:00.656Z,39296
2018-05-12T07:08:02.080Z,40000
2018-05-12T07:09:03.466Z,39168
2018-05-12T07:10:04.851Z,39616
2018-05-12T07:11:06.247Z,40352
2018-05-12T07:12:07.652Z,40800
2018-05-12T07:13:09.028Z,39808
2018-05-12T07:14:10.421Z,40160
2018-05-12T07:15:11.816Z,40512
2018-05-12T07:16:13.192Z,40000
2018-05-12T07:17:14.573Z,41184
2018-05-12T07:18:15.957Z,42080
2018-05-12T07:19:17.346Z,43200
2018-05-12T07:20:18.722Z,44256
2018-05-12T07:21:20.116Z,45280
2018-05-12T07:22:21.500Z,47392
2018-05-12T07:23:22.932Z,48128
2018-05-12T07:24:24.309Z,47872
2018-05-12T07:25:25.710Z,51360
2018-05-12T07:26:27.106Z,54272
2018-05-12T07:27:28.492Z,54432
2018-05-12T07:28:29.884Z,52320
2018-05-12T07:29:31.274Z,50368
2018-05-12T07:30:32.652Z,49664
2018-05-12T07:31:34.037Z,50432
2018-05-12T07:32:35.430Z,52288
2018-05-12T07:33:36.825Z,58144
2018-05-12T07:34:38.228Z,63136
2018-05-12T07:35:39.618Z,59488
2018-05-12T07:36:40.999Z,54048
2018-05-12T07:37:42.387Z,52288
2018-05-12T07:38:43.773Z,46912
2018-05-12T07:39:45.160Z,43392
2018-05-12T07:40:46.545Z,42176
2018-05-12T07:41:47.946Z,38304
2018-05-12T07:42:49.379Z,38240
2018-05-12T07:43:50.776Z,36736
2018-05-12T07:44:52.174Z,36064
2018-05-12T07:45:53.574Z,36544
2018-05-12T07:46:55.016Z,37248
2018-05-12T07:47:56.444Z,37504
2018-05-12T07:48:57.828Z,38208
2018-05-12T07:49:59.227Z,38560
2018-05-12T07:51:00.602Z,38976
2018-05-12T07:52:02.003Z,39456
2018-05-12T07:53:03.390Z,39488
2018-05-12T07:54:04.780Z,38496
2018-05-12T07:55:06.188Z,39424
2018-05-12T07:56:07.579Z,40128
2018-05-12T07:57:08.974Z,40288
2018-05-12T07:58:10.392Z,40864
2018-05-12T07:59:11.782Z,41088
2018-05-12T08:00:13.169Z,41120
2018-05-12T08:01:14.557Z,39968
2018-05-12T08:02:17.145Z,41024
2018-05-12T08:03:18.508Z,40576
2018-05-12T08:04:20.136Z,41088
2018-05-12T08:05:21.953Z,42176
2018-05-12T08:06:23.352Z,41760
2018-05-12T08:07:24.851Z,42016
2018-05-12T08:08:26.257Z,41536
2018-05-12T08:09:27.673Z,40512
2018-05-12T08:10:29.073Z,41312
2018-05-12T08:11:30.467Z,42848
2018-05-12T08:12:31.863Z,43264
2018-05-12T08:13:33.256Z,42496
2018-05-12T08:14:34.648Z,43168
2018-05-12T08:15:36.141Z,42912
2018-05-12T08:16:38.194Z,43264
2018-05-12T08:17:40.243Z,42912
2018-05-12T08:18:41.738Z,43616
2018-05-12T08:19:43.209Z,43424
2018-05-12T08:20:44.603Z,42944
2018-05-12T08:21:45.993Z,43136
2018-05-12T08:22:47.406Z,42912
2018-05-12T08:23:48.785Z,47328
2018-05-12T08:24:50.182Z,59424
2018-05-12T08:25:51.628Z,75392
2018-05-12T08:26:53.142Z,84384
2018-05-12T08:27:54.426Z,89952
2018-05-12T08:28:55.839Z,75520
2018-05-12T08:29:57.270Z,72928
2018-05-12T08:30:58.669Z,76064
2018-05-12T08:32:00.077Z,84288
2018-05-12T08:33:01.485Z,89568
2018-05-12T08:34:02.878Z,92512
2018-05-12T08:35:04.260Z,91680
2018-05-12T08:36:05.655Z,87968
2018-05-12T08:37:07.048Z,83744
2018-05-12T08:38:08.451Z,87232
2018-05-12T08:39:09.855Z,90144
2018-05-12T08:40:11.249Z,90944
2018-05-12T08:41:12.633Z,92704
2018-05-12T08:42:14.025Z,93760
2018-05-12T08:43:15.410Z,92416
2018-05-12T08:44:16.803Z,92928
2018-05-12T08:45:18.192Z,88992
2018-05-12T08:46:19.588Z,91904
2018-05-12T08:47:20.980Z,90816
2018-05-12T08:48:22.446Z,87456
2018-05-12T08:49:23.761Z,92032
2018-05-12T08:50:25.157Z,92320
2018-05-12T08:51:26.546Z,94400
2018-05-12T08:52:27.954Z,95776
2018-05-12T08:53:29.333Z,95648
2018-05-12T08:54:30.739Z,96896
2018-05-12T08:55:32.130Z,98400
2018-05-12T08:56:33.523Z,98528
2018-05-12T08:57:34.917Z,99456
2018-05-12T08:58:36.310Z,98304
2018-05-12T08:59:37.703Z,99520
2018-05-12T09:00:39.093Z,99744
2018-05-12T09:01:40.507Z,98656
2018-05-12T09:02:41.898Z,97696
2018-05-12T09:03:43.280Z,96032
2018-05-12T09:04:44.682Z,96096
2018-05-12T09:05:46.104Z,93152
2018-05-12T09:06:48.763Z,93984
2018-05-12T09:07:50.175Z,94464
2018-05-12T09:08:51.573Z,95968
2018-05-12T09:09:52.959Z,96896
2018-05-12T09:10:54.366Z,97536
2018-05-12T09:11:55.772Z,97568
2018-05-12T09:12:57.178Z,93600
2018-05-12T09:13:58.560Z,95072
2018-05-12T09:15:00.010Z,94496
2018-05-12T09:16:01.423Z,94784
2018-05-12T09:17:02.819Z,93280
2018-05-12T09:18:04.243Z,93088
2018-05-12T09:19:05.758Z,93024
2018-05-12T09:20:07.152Z,91232
2018-05-12T09:21:08.634Z,92480
2018-05-12T09:22:10.038Z,93632
2018-05-12T09:23:11.533Z,91904
2018-05-12T09:24:12.929Z,91168
2018-05-12T09:25:14.328Z,91680
2018-05-12T09:26:15.719Z,93504
2018-05-12T09:27:17.119Z,91584
2018-05-12T09:28:18.510Z,90848
2018-05-12T09:29:19.957Z,93760
2018-05-12T09:30:21.354Z,92832
2018-05-12T09:31:22.810Z,91648
2018-05-12T09:32:24.206Z,92320
2018-05-12T09:33:25.607Z,91040
2018-05-12T09:34:27.010Z,90880
2018-05-12T09:35:28.394Z,87456
2018-05-12T09:36:29.796Z,92064
2018-05-12T09:37:31.202Z,96256
2018-05-12T09:38:32.600Z,96416
2018-05-12T09:39:34.000Z,92512
2018-05-12T09:40:35.392Z,92416
2018-05-12T09:41:36.860Z,93280
2018-05-12T09:42:38.327Z,92096
2018-05-12T09:43:39.624Z,93120
2018-05-12T09:44:41.077Z,94368
2018-05-12T09:45:42.475Z,94368
2018-05-12T09:46:43.874Z,95456
2018-05-12T09:47:45.293Z,96352
2018-05-12T09:48:46.689Z,97504
2018-05-12T09:49:48.557Z,97728
2018-05-12T09:50:49.948Z,96640
2018-05-12T09:51:51.358Z,96960
2018-05-12T09:52:52.759Z,100288
2018-05-12T09:53:54.172Z,97056
2018-05-12T09:54:55.568Z,91008
2018-05-12T09:55:56.977Z,93024
2018-05-12T09:56:58.370Z,96800
2018-05-12T09:57:59.772Z,38144
2018-05-12T09:59:01.239Z,68384
2018-05-12T10:00:02.632Z,94944
2018-05-12T10:01:04.016Z,99136
2018-05-12T10:02:05.404Z,97344
2018-05-12T10:03:06.857Z,94560
2018-05-12T10:04:08.255Z,93856
2018-05-12T10:05:09.653Z,96608
2018-05-12T10:06:11.116Z,100320
2018-05-12T10:07:12.512Z,86784
2018-05-12T10:08:13.905Z,93664
2018-05-12T10:09:15.304Z,97216
2018-05-12T10:10:16.695Z,98592
2018-05-12T10:11:18.090Z,101696
2018-05-12T10:12:19.489Z,102560
2018-05-12T10:13:20.923Z,107040
2018-05-12T10:14:22.307Z,109216
2018-05-12T10:15:23.731Z,108384
2018-05-12T10:16:25.099Z,106464
2018-05-12T10:17:26.504Z,107808
2018-05-12T10:18:27.911Z,107520
2018-05-12T10:19:29.323Z,108320
2018-05-12T10:20:30.767Z,105728
2018-05-12T10:21:32.163Z,107520
2018-05-12T10:22:33.517Z,109056
2018-05-12T10:23:34.935Z,109280
2018-05-12T10:24:36.334Z,109248
2018-05-12T10:25:37.735Z,110816
2018-05-12T10:26:39.142Z,114400
2018-05-12T10:27:40.552Z,107968
2018-05-12T10:28:42.016Z,69664
2018-05-12T10:29:43.318Z,47488
2018-05-12T10:30:44.722Z,100768
2018-05-12T10:31:46.111Z,110912
2018-05-12T10:32:47.511Z,44416
2018-05-12T10:33:48.906Z,44608
2018-05-12T10:34:50.303Z,52256
2018-05-12T10:35:51.700Z,104448
2018-05-12T10:36:53.095Z,109312
2018-05-12T10:37:54.505Z,115424
2018-05-12T10:38:55.963Z,120256
2018-05-12T10:39:57.249Z,118400
2018-05-12T10:40:58.647Z,116256
2018-05-12T10:42:00.039Z,119168
2018-05-12T10:43:01.451Z,120736
2018-05-12T10:44:02.854Z,122688
2018-05-12T10:45:04.245Z,123840
2018-05-12T10:46:05.665Z,121120
2018-05-12T10:47:07.077Z,115872
2018-05-12T10:48:08.472Z,114144
2018-05-12T10:49:09.868Z,114080
2018-05-12T10:50:11.313Z,110528
2018-05-12T10:51:12.720Z,115296
2018-05-12T10:52:14.117Z,118656
2018-05-12T10:53:15.519Z,120032
2018-05-12T10:54:16.914Z,120192
2018-05-12T10:55:18.319Z,120960
2018-05-12T10:56:19.722Z,121632
2018-05-12T10:57:21.121Z,121920
2018-05-12T10:58:22.525Z,123424
2018-05-12T10:59:23.927Z,122752
2018-05-12T11:00:25.328Z,120960
2018-05-12T11:01:26.736Z,117760
2018-05-12T11:02:28.134Z,115968
2018-05-12T11:03:29.562Z,53760
2018-05-12T11:04:30.979Z,64256
2018-05-12T11:05:32.378Z,111808
2018-05-12T11:06:33.771Z,122688
2018-05-12T11:07:35.175Z,121280
2018-05-12T11:08:36.575Z,117632
2018-05-12T11:09:38.067Z,111072
2018-05-12T11:10:39.393Z,101376
2018-05-12T11:11:40.786Z,117248
2018-05-12T11:12:42.200Z,120096
2018-05-12T11:13:43.588Z,48960
2018-05-12T11:14:44.977Z,40032
2018-05-12T11:15:46.386Z,96896
2018-05-12T11:16:47.795Z,67392
2018-05-12T11:17:49.194Z,72128
2018-05-12T11:18:50.584Z,107936
2018-05-12T11:19:51.984Z,48448
2018-05-12T11:20:53.376Z,106720
2018-05-12T11:21:54.814Z,119072
2018-05-12T11:22:56.134Z,111392
2018-05-12T11:23:57.549Z,112736
2018-05-12T11:24:58.939Z,51808
2018-05-12T11:26:00.333Z,45792
2018-05-12T11:27:01.740Z,44160
2018-05-12T11:28:03.159Z,106304
2018-05-12T11:29:04.549Z,109696
2018-05-12T11:30:05.942Z,114624
2018-05-12T11:31:07.380Z,103904
2018-05-12T11:32:08.838Z,115264
2018-05-12T11:33:10.178Z,101856
2018-05-12T11:34:11.585Z,110048
2018-05-12T11:35:12.984Z,39744
2018-05-12T11:36:14.371Z,33472
2018-05-12T11:37:15.772Z,28608
2018-05-12T11:38:17.169Z,27168
2018-05-12T11:39:18.571Z,29984
2018-05-12T11:40:19.967Z,40288
2018-05-12T11:41:21.361Z,118080
2018-05-12T11:42:22.759Z,122592
2018-05-12T11:43:24.154Z,117824
2018-05-12T11:44:25.595Z,114368
2018-05-12T11:45:26.966Z,112256
2018-05-12T11:46:28.361Z,114976
2018-05-12T11:47:29.760Z,61408
2018-05-12T11:48:31.167Z,116672
2018-05-12T11:49:32.574Z,115488
2018-05-12T11:50:34.014Z,60096
2018-05-12T11:51:35.405Z,76224
2018-05-12T11:52:36.856Z,37696
2018-05-12T11:53:38.284Z,35680
2018-05-12T11:54:39.759Z,38336
2018-05-12T11:55:41.160Z,50912
2018-05-12T11:56:42.573Z,38528
2018-05-12T11:57:43.994Z,40288
2018-05-12T11:58:45.417Z,68992
2018-05-12T11:59:46.816Z,40192
2018-05-12T12:00:48.210Z,117952
2018-05-12T12:01:49.606Z,117984
2018-05-12T12:02:50.998Z,115840
2018-05-12T12:03:52.471Z,115296
2018-05-12T12:04:53.799Z,117088
2018-05-12T12:05:55.182Z,119584
2018-05-12T12:06:56.580Z,121088
2018-05-12T12:07:57.977Z,119680
2018-05-12T12:08:59.377Z,116448
2018-05-12T12:10:00.764Z,112480
2018-05-12T12:11:02.161Z,109376
2018-05-12T12:12:03.555Z,105952
2018-05-12T12:13:04.948Z,105344
2018-05-12T12:14:06.341Z,105664
2018-05-12T12:15:07.744Z,105344
2018-05-12T12:16:09.142Z,106624
2018-05-12T12:17:10.539Z,108352
2018-05-12T12:18:11.937Z,108608
2018-05-12T12:19:13.351Z,108736
2018-05-12T12:20:14.749Z,106656
2018-05-12T12:21:16.147Z,107968
2018-05-12T12:22:17.549Z,106336
2018-05-12T12:23:18.940Z,26848
2018-05-12T12:24:20.328Z,25888
2018-05-12T12:25:21.720Z,32416
2018-05-12T12:26:23.130Z,107424
2018-05-12T12:27:24.528Z,105024
2018-05-12T12:28:25.925Z,106272
2018-05-12T12:29:27.315Z,105472
2018-05-12T12:30:28.709Z,104288
2018-05-12T12:31:30.102Z,105824
2018-05-12T12:32:32.636Z,105600
2018-05-12T12:33:34.788Z,104288
2018-05-12T12:34:36.257Z,98784
2018-05-12T12:35:37.651Z,104928
2018-05-12T12:36:39.055Z,105728
2018-05-12T12:37:40.444Z,105152
2018-05-12T12:38:41.836Z,105536
2018-05-12T12:39:43.233Z,101856
2018-05-12T12:40:44.641Z,100352
2018-05-12T12:41:46.036Z,100736
2018-05-12T12:42:48.037Z,98656
2018-05-12T12:43:49.440Z,99200
2018-05-12T12:44:50.858Z,99680
2018-05-12T12:45:52.243Z,100608
2018-05-12T12:46:53.674Z,104160
2018-05-12T12:47:55.070Z,102560
2018-05-12T12:48:56.480Z,99808
2018-05-12T12:49:57.878Z,99424
2018-05-12T12:50:59.279Z,100704
2018-05-12T12:52:00.670Z,56672
2018-05-12T12:53:02.071Z,33472
2018-05-12T12:54:03.501Z,30048
2018-05-12T12:55:04.895Z,28608
2018-05-12T12:56:06.288Z,27968
2018-05-12T12:57:07.769Z,33920
2018-05-12T12:58:09.165Z,44576
2018-05-12T12:59:10.566Z,36032
2018-05-12T13:00:11.965Z,54944
2018-05-12T13:01:13.358Z,96608
2018-05-12T13:02:14.709Z,93824
2018-05-12T13:03:16.103Z,90432
2018-05-12T13:04:17.497Z,43424
2018-05-12T13:05:18.888Z,59168
2018-05-12T13:06:20.289Z,94752
2018-05-12T13:07:21.666Z,95136
2018-05-12T13:08:23.083Z,100576
2018-05-12T13:09:24.479Z,102080
2018-05-12T13:10:25.871Z,103392
2018-05-12T13:11:27.273Z,101408
2018-05-12T13:12:28.669Z,98144
2018-05-12T13:13:30.067Z,98752
2018-05-12T13:14:31.455Z,86144
2018-05-12T13:15:32.857Z,69120
2018-05-12T13:16:34.252Z,88800
2018-05-12T13:17:36.584Z,85440
2018-05-12T13:18:38.011Z,86784
2018-05-12T13:19:39.412Z,87296
2018-05-12T13:20:40.811Z,87616
2018-05-12T13:21:42.200Z,86880
2018-05-12T13:22:43.592Z,88480
2018-05-12T13:23:44.991Z,89920
2018-05-12T13:24:46.380Z,88064
2018-05-12T13:25:47.779Z,81984
2018-05-12T13:26:49.174Z,87872
2018-05-12T13:27:50.668Z,87264
2018-05-12T13:28:51.925Z,86944
2018-05-12T13:29:53.404Z,86208
2018-05-12T13:30:54.761Z,82624
2018-05-12T13:31:56.157Z,81792
2018-05-12T13:32:57.577Z,85248
2018-05-12T13:33:58.969Z,86688
2018-05-12T13:35:00.373Z,89184
2018-05-12T13:36:01.769Z,90592
2018-05-12T13:37:03.166Z,90464
2018-05-12T13:38:04.568Z,90464
2018-05-12T13:39:05.972Z,91904